sensor_id;sensor_type;location;lat;lon;timestamp;temperature;humidity
24844;DHT22;12921;51.392;12.240;2022-12-11T16:52:19;-2.30;99.90
24844;DHT22;12921;51.392;12.240;2022-12-11T16:54:44;-2.60;99.90
24844;DHT22;12921;51.392;12.240;2022-12-11T16:57:10;-2.70;99.90
24844;DHT22;12921;51.392;12.240;2022-12-11T16:59:36;-2.80;99.90
24844;DHT22;12921;51.392;12.240;2022-12-11T17:02:01;-2.80;99.90
24844;DHT22;12921;51.392;12.240;2022-12-11T17:04:27;-2.80;99.90
24844;DHT22;12921;51.392;12.240;2022-12-11T17:06:53;-2.80;99.90
24844;DHT22;12921;51.392;12.240;2022-12-11T17:09:18;-2.80;99.90
24844;DHT22;12921;51.392;12.240;2022-12-11T17:11:44;-2.80;99.90
24844;DHT22;12921;51.392;12.240;2022-12-11T17:14:09;-2.80;99.90
24844;DHT22;12921;51.392;12.240;2022-12-11T17:16:37;-2.80;99.90
24844;DHT22;12921;51.392;12.240;2022-12-11T17:19:02;-2.70;99.90
24844;DHT22;12921;51.392;12.240;2022-12-11T17:21:31;-2.80;99.90
24844;DHT22;12921;51.392;12.240;2022-12-11T17:23:57;-2.70;99.90
24844;DHT22;12921;51.392;12.240;2022-12-11T17:26:22;-2.60;99.90
24844;DHT22;12921;51.392;12.240;2022-12-11T17:28:49;-2.70;99.90
24844;DHT22;12921;51.392;12.240;2022-12-11T17:31:17;-2.70;99.90
24844;DHT22;12921;51.392;12.240;2022-12-11T17:33:44;-2.80;99.90
24844;DHT22;12921;51.392;12.240;2022-12-11T17:36:12;-2.80;99.90
24844;DHT22;12921;51.392;12.240;2022-12-11T17:38:38;-2.80;99.90
24844;DHT22;12921;51.392;12.240;2022-12-11T17:41:06;-2.80;99.90
24844;DHT22;12921;51.392;12.240;2022-12-11T17:43:32;-2.70;99.90
24844;DHT22;12921;51.392;12.240;2022-12-11T17:45:57;-2.70;99.90
24844;DHT22;12921;51.392;12.240;2022-12-11T17:48:23;-2.80;99.90
24844;DHT22;12921;51.392;12.240;2022-12-11T17:50:50;-2.70;99.90
24844;DHT22;12921;51.392;12.240;2022-12-11T17:53:17;-2.80;99.90
24844;DHT22;12921;51.392;12.240;2022-12-11T17:55:44;-2.80;99.90
24844;DHT22;12921;51.392;12.240;2022-12-11T17:58:15;-2.80;99.90
24844;DHT22;12921;51.392;12.240;2022-12-11T18:00:44;-2.70;99.90
24844;DHT22;12921;51.392;12.240;2022-12-11T18:03:10;-2.80;99.90
24844;DHT22;12921;51.392;12.240;2022-12-11T18:05:51;-2.80;99.90
24844;DHT22;12921;51.392;12.240;2022-12-11T18:08:19;-2.70;99.90
24844;DHT22;12921;51.392;12.240;2022-12-11T18:10:46;-2.80;99.90
24844;DHT22;12921;51.392;12.240;2022-12-11T18:13:12;-2.80;99.90
24844;DHT22;12921;51.392;12.240;2022-12-11T18:15:39;-2.90;99.90
24844;DHT22;12921;51.392;12.240;2022-12-11T18:18:06;-2.80;99.90
24844;DHT22;12921;51.392;12.240;2022-12-11T18:20:33;-2.90;99.90
24844;DHT22;12921;51.392;12.240;2022-12-11T18:22:59;-2.80;99.90
24844;DHT22;12921;51.392;12.240;2022-12-11T18:25:26;-2.80;99.90
24844;DHT22;12921;51.392;12.240;2022-12-11T18:27:52;-2.80;99.90
24844;DHT22;12921;51.392;12.240;2022-12-11T18:30:19;-2.70;99.90
24844;DHT22;12921;51.392;12.240;2022-12-11T18:32:45;-2.80;99.90
24844;DHT22;12921;51.392;12.240;2022-12-11T18:35:11;-2.70;99.90
24844;DHT22;12921;51.392;12.240;2022-12-11T18:37:37;-2.80;99.90
24844;DHT22;12921;51.392;12.240;2022-12-11T18:40:03;-2.80;99.90
24844;DHT22;12921;51.392;12.240;2022-12-11T18:42:29;-2.80;99.90
24844;DHT22;12921;51.392;12.240;2022-12-11T18:44:55;-2.90;99.90
24844;DHT22;12921;51.392;12.240;2022-12-11T18:47:20;-2.90;99.90
24844;DHT22;12921;51.392;12.240;2022-12-11T18:49:46;-2.90;99.90
24844;DHT22;12921;51.392;12.240;2022-12-11T18:52:12;-2.90;99.90
24844;DHT22;12921;51.392;12.240;2022-12-11T18:54:37;-2.90;99.90
24844;DHT22;12921;51.392;12.240;2022-12-11T18:57:03;-2.90;99.90
24844;DHT22;12921;51.392;12.240;2022-12-11T18:59:29;-2.90;99.90
24844;DHT22;12921;51.392;12.240;2022-12-11T19:01:54;-2.90;99.90
24844;DHT22;12921;51.392;12.240;2022-12-11T19:04:20;-2.90;99.90
24844;DHT22;12921;51.392;12.240;2022-12-11T19:06:46;-2.90;99.90
24844;DHT22;12921;51.392;12.240;2022-12-11T19:09:11;-2.90;99.90
24844;DHT22;12921;51.392;12.240;2022-12-11T19:11:39;-2.80;99.90
24844;DHT22;12921;51.392;12.240;2022-12-11T19:14:06;-2.80;99.90
24844;DHT22;12921;51.392;12.240;2022-12-11T19:16:34;-2.80;99.90
24844;DHT22;12921;51.392;12.240;2022-12-11T19:19:06;-2.80;99.90
24844;DHT22;12921;51.392;12.240;2022-12-11T19:21:34;-2.80;99.90
24844;DHT22;12921;51.392;12.240;2022-12-11T19:24:02;-2.90;99.90
24844;DHT22;12921;51.392;12.240;2022-12-11T19:26:28;-2.90;99.90
24844;DHT22;12921;51.392;12.240;2022-12-11T19:28:54;-2.90;99.90
24844;DHT22;12921;51.392;12.240;2022-12-11T19:31:25;-2.90;99.90
24844;DHT22;12921;51.392;12.240;2022-12-11T19:33:51;-2.90;99.90
24844;DHT22;12921;51.392;12.240;2022-12-11T19:36:20;-2.90;99.90
24844;DHT22;12921;51.392;12.240;2022-12-11T19:38:46;-3.00;99.90
24844;DHT22;12921;51.392;12.240;2022-12-11T19:41:32;-3.00;99.90
24844;DHT22;12921;51.392;12.240;2022-12-11T19:43:58;-2.90;99.90
24844;DHT22;12921;51.392;12.240;2022-12-11T19:46:24;-3.00;99.90
24844;DHT22;12921;51.392;12.240;2022-12-11T19:48:51;-3.00;99.90
24844;DHT22;12921;51.392;12.240;2022-12-11T19:51:24;-3.00;99.90
24844;DHT22;12921;51.392;12.240;2022-12-11T19:53:50;-2.90;99.90
24844;DHT22;12921;51.392;12.240;2022-12-11T19:56:17;-3.00;99.90
24844;DHT22;12921;51.392;12.240;2022-12-11T19:58:43;-2.90;99.90
24844;DHT22;12921;51.392;12.240;2022-12-11T20:01:09;-3.00;99.90
24844;DHT22;12921;51.392;12.240;2022-12-11T20:03:34;-3.00;99.90
24844;DHT22;12921;51.392;12.240;2022-12-11T20:06:02;-3.00;99.90
24844;DHT22;12921;51.392;12.240;2022-12-11T20:08:28;-3.00;99.90
24844;DHT22;12921;51.392;12.240;2022-12-11T20:10:53;-3.00;99.90
24844;DHT22;12921;51.392;12.240;2022-12-11T20:13:20;-3.00;99.90
24844;DHT22;12921;51.392;12.240;2022-12-11T20:15:46;-3.10;99.90
24844;DHT22;12921;51.392;12.240;2022-12-11T20:18:11;-3.10;99.90
24844;DHT22;12921;51.392;12.240;2022-12-11T20:20:37;-3.10;99.90
24844;DHT22;12921;51.392;12.240;2022-12-11T20:23:03;-3.20;99.90
24844;DHT22;12921;51.392;12.240;2022-12-11T20:25:29;-3.20;99.90
24844;DHT22;12921;51.392;12.240;2022-12-11T20:27:55;-3.10;99.90
24844;DHT22;12921;51.392;12.240;2022-12-11T20:30:21;-3.20;99.90
24844;DHT22;12921;51.392;12.240;2022-12-11T20:32:51;-3.20;99.90
24844;DHT22;12921;51.392;12.240;2022-12-11T20:35:17;-3.20;99.90
24844;DHT22;12921;51.392;12.240;2022-12-11T20:37:43;-3.30;99.90
24844;DHT22;12921;51.392;12.240;2022-12-11T20:40:09;-3.30;99.90
24844;DHT22;12921;51.392;12.240;2022-12-11T20:42:35;-3.30;99.90
24844;DHT22;12921;51.392;12.240;2022-12-11T20:45:02;-3.30;99.90
24844;DHT22;12921;51.392;12.240;2022-12-11T20:47:28;-3.20;99.90
24844;DHT22;12921;51.392;12.240;2022-12-11T20:49:53;-3.20;99.90
24844;DHT22;12921;51.392;12.240;2022-12-11T20:52:19;-3.20;99.90
24844;DHT22;12921;51.392;12.240;2022-12-11T20:54:45;-3.20;99.90
24844;DHT22;12921;51.392;12.240;2022-12-11T20:57:12;-3.20;99.90
24844;DHT22;12921;51.392;12.240;2022-12-11T20:59:39;-3.20;99.90
24844;DHT22;12921;51.392;12.240;2022-12-11T21:02:06;-3.20;99.90
24844;DHT22;12921;51.392;12.240;2022-12-11T21:04:36;-3.20;99.90
24844;DHT22;12921;51.392;12.240;2022-12-11T21:07:04;-3.20;99.90
24844;DHT22;12921;51.392;12.240;2022-12-11T21:09:30;-3.20;99.90
24844;DHT22;12921;51.392;12.240;2022-12-11T21:11:56;-3.20;99.90
24844;DHT22;12921;51.392;12.240;2022-12-11T21:14:22;-3.10;99.90
24844;DHT22;12921;51.392;12.240;2022-12-11T21:16:48;-3.10;99.90
24844;DHT22;12921;51.392;12.240;2022-12-11T21:19:14;-3.10;99.90
24844;DHT22;12921;51.392;12.240;2022-12-11T21:21:44;-3.10;99.90
24844;DHT22;12921;51.392;12.240;2022-12-11T21:24:30;-3.10;99.90
24844;DHT22;12921;51.392;12.240;2022-12-11T21:26:57;-3.10;99.90
24844;DHT22;12921;51.392;12.240;2022-12-11T21:29:25;-3.00;99.90
24844;DHT22;12921;51.392;12.240;2022-12-11T21:31:52;-3.00;99.90
24844;DHT22;12921;51.392;12.240;2022-12-11T21:34:18;-3.00;99.90
24844;DHT22;12921;51.392;12.240;2022-12-11T21:36:45;-3.00;99.90
24844;DHT22;12921;51.392;12.240;2022-12-11T21:39:12;-2.90;99.90
24844;DHT22;12921;51.392;12.240;2022-12-11T21:41:38;-2.90;99.90
24844;DHT22;12921;51.392;12.240;2022-12-11T21:44:04;-2.90;99.90
24844;DHT22;12921;51.392;12.240;2022-12-11T21:46:30;-2.90;99.90
24844;DHT22;12921;51.392;12.240;2022-12-11T21:48:56;-2.90;99.90
24844;DHT22;12921;51.392;12.240;2022-12-11T21:51:31;-2.90;99.90
24844;DHT22;12921;51.392;12.240;2022-12-11T21:53:57;-2.90;99.90
24844;DHT22;12921;51.392;12.240;2022-12-11T21:56:24;-2.90;99.90
24844;DHT22;12921;51.392;12.240;2022-12-11T21:58:53;-2.90;99.90
24844;DHT22;12921;51.392;12.240;2022-12-11T22:01:22;-2.90;99.90
24844;DHT22;12921;51.392;12.240;2022-12-11T22:03:48;-2.90;99.90
24844;DHT22;12921;51.392;12.240;2022-12-11T22:06:15;-2.90;99.90
24844;DHT22;12921;51.392;12.240;2022-12-11T22:08:41;-2.90;99.90
24844;DHT22;12921;51.392;12.240;2022-12-11T22:11:07;-2.80;99.90
24844;DHT22;12921;51.392;12.240;2022-12-11T22:13:33;-2.90;99.90
24844;DHT22;12921;51.392;12.240;2022-12-11T22:15:59;-2.90;99.90
24844;DHT22;12921;51.392;12.240;2022-12-11T22:18:24;-2.90;99.90
24844;DHT22;12921;51.392;12.240;2022-12-11T22:20:52;-2.90;99.90
24844;DHT22;12921;51.392;12.240;2022-12-11T22:23:18;-2.90;99.90
24844;DHT22;12921;51.392;12.240;2022-12-11T22:25:44;-2.90;99.90
24844;DHT22;12921;51.392;12.240;2022-12-11T22:28:10;-2.80;99.90
24844;DHT22;12921;51.392;12.240;2022-12-11T22:30:36;-2.90;99.90
24844;DHT22;12921;51.392;12.240;2022-12-11T22:33:02;-2.90;99.90
24844;DHT22;12921;51.392;12.240;2022-12-11T22:35:27;-2.90;99.90
24844;DHT22;12921;51.392;12.240;2022-12-11T22:37:53;-2.80;99.90
24844;DHT22;12921;51.392;12.240;2022-12-11T22:40:19;-2.80;99.90
24844;DHT22;12921;51.392;12.240;2022-12-11T22:42:46;-2.70;99.90
24844;DHT22;12921;51.392;12.240;2022-12-11T22:45:12;-2.80;99.90
24844;DHT22;12921;51.392;12.240;2022-12-11T22:47:37;-2.80;99.90
24844;DHT22;12921;51.392;12.240;2022-12-11T22:50:04;-2.70;99.90
24844;DHT22;12921;51.392;12.240;2022-12-11T22:52:30;-2.70;99.90
24844;DHT22;12921;51.392;12.240;2022-12-11T22:54:56;-2.70;99.90
24844;DHT22;12921;51.392;12.240;2022-12-11T22:57:22;-2.60;99.90
24844;DHT22;12921;51.392;12.240;2022-12-11T22:59:47;-2.50;99.90
24844;DHT22;12921;51.392;12.240;2022-12-11T23:02:13;-2.40;99.90
24844;DHT22;12921;51.392;12.240;2022-12-11T23:04:39;-2.50;99.90
24844;DHT22;12921;51.392;12.240;2022-12-11T23:07:05;-2.50;99.90
24844;DHT22;12921;51.392;12.240;2022-12-11T23:09:31;-2.50;99.90
24844;DHT22;12921;51.392;12.240;2022-12-11T23:11:57;-2.60;99.90
24844;DHT22;12921;51.392;12.240;2022-12-11T23:14:23;-2.60;99.90
24844;DHT22;12921;51.392;12.240;2022-12-11T23:16:49;-2.60;99.90
24844;DHT22;12921;51.392;12.240;2022-12-11T23:19:15;-2.60;99.90
24844;DHT22;12921;51.392;12.240;2022-12-11T23:21:41;-2.60;99.90
24844;DHT22;12921;51.392;12.240;2022-12-11T23:24:07;-2.40;99.90
24844;DHT22;12921;51.392;12.240;2022-12-11T23:26:32;-2.40;99.90
24844;DHT22;12921;51.392;12.240;2022-12-11T23:28:59;-2.50;99.90
24844;DHT22;12921;51.392;12.240;2022-12-11T23:31:25;-2.50;99.90
24844;DHT22;12921;51.392;12.240;2022-12-11T23:33:51;-2.50;99.90
24844;DHT22;12921;51.392;12.240;2022-12-11T23:36:17;-2.50;99.90
24844;DHT22;12921;51.392;12.240;2022-12-11T23:38:43;-2.50;99.90
24844;DHT22;12921;51.392;12.240;2022-12-11T23:41:10;-2.50;99.90
24844;DHT22;12921;51.392;12.240;2022-12-11T23:43:36;-2.50;99.90
24844;DHT22;12921;51.392;12.240;2022-12-11T23:46:14;-2.60;99.90
24844;DHT22;12921;51.392;12.240;2022-12-11T23:48:40;-2.60;99.90
24844;DHT22;12921;51.392;12.240;2022-12-11T23:51:06;-2.60;99.90
24844;DHT22;12921;51.392;12.240;2022-12-11T23:53:32;-2.60;99.90
24844;DHT22;12921;51.392;12.240;2022-12-11T23:56:04;-2.60;99.90
24844;DHT22;12921;51.392;12.240;2022-12-11T23:58:30;-2.60;99.90
